Bruk link Alternativ webside om du vil se statistikk,rapport,graf,analyse og mye mer.





Vårt webkamera mer informasjon My webcam


Kamera på Foreneset mer informasjon webcam on foreneset


Nedbørsradar  rain snow radar


Besøk vår andre værside:

Alternativ webside

iphone versjon

Nettbrett versjon

Foreneset
verstasjon



Nære METAR rapporter

     
ENZV - Stavanger
oppdatert: 09-08-2022 14:50
Delvis Skyet  
Delvis Skyet  
   Vind: VSV 3.6 m/s
Vind: VSV 3.6 m/s
Temperatur: 18°C
Duggpunkt: 14°C
Fuktighet: 78%
Barometer: 1028 hPa
Skyer: Delvis Skyet
Sikt: mer enn 10 km
Skydetaljer: Få Skyer 762 m,
Delvis Skyet 3352.8 m
ENZV 091250Z 25007KT 9999 FEW025 SCT110 18/14 Q1028
ENHD - Haugesund
oppdatert: 09-08-2022 14:50
Delvis Skyet  
Delvis Skyet  
   Vind: SV 5.1 m/s
Vind: SV 5.1 m/s
Temperatur: 17°C
Duggpunkt: 13°C
Fuktighet: 77%
Barometer: 1028 hPa
Skyer: Delvis Skyet
Sikt: mer enn 10 km
Skydetaljer: Få Skyer 1066.8 m,
Delvis Skyet 3657.6 m
ENHD 091250Z 22010KT 9999 FEW035 SCT120 17/13 Q1028
ENBR - Bergen
oppdatert: 09-08-2022 14:50
For det meste skyet  
For det meste skyet  
   Vind: SSØ 5.1 m/s
Vind: SSØ 5.1 m/s
Temperatur: 17°C
Duggpunkt: 14°C
Fuktighet: 83%
Barometer: 1027 hPa
Skyer: For det meste skyet
Sikt: mer enn 10 km
Skydetaljer: Delvis Skyet 365.8 m,
For det meste skyet 762 m
ENBR 091250Z 16010KT 140V200 9999 SCT012 BKN025 17/14 Q1027 TEMPO BKN012 RMK WIND 1200FT 18013KT
ENCN - Kristiansand
oppdatert: 09-08-2022 14:50
Få Skyer  
Få Skyer  
   Vind: SSV 4.1 m/s
Vind: SSV 4.1 m/s
Temperatur: 20°C
Duggpunkt: 14°C
Fuktighet: 69%
Barometer: 1027 hPa
Skyer: Få Skyer
Sikt: mer enn 10 km
Skydetaljer: Få Skyer 609.6 m
ENCN 091250Z 20008KT 9999 FEW020 20/14 Q1027
ENGM - Oslo
oppdatert: 09-08-2022 14:50
For det meste skyet  
For det meste skyet  
   Vind: Sør 5.7 m/s
Vind: Sør 5.7 m/s
Temperatur: 20°C
Duggpunkt: 12°C
Fuktighet: 60%
Barometer: 1026 hPa
Skyer: For det meste skyet
Sikt: mer enn 10 km
Skydetaljer: For det meste skyet 883.9 m
ENGM 091250Z 19011KT 160V230 9999 BKN029 20/12 Q1026 NOSIG
ENVA - Trondheim
oppdatert: 09-08-2022 14:50
For det meste skyet  
For det meste skyet  
   Vind: ØNØ 2.1 m/s
Vind: ØNØ 2.1 m/s
Temperatur: 19°C
Duggpunkt: 15°C
Fuktighet: 78%
Barometer: 1022 hPa
Skyer: For det meste skyet
Sikt: mer enn 10 km
Skydetaljer: Få Skyer 1371.6 m,
For det meste skyet 1981.2 m
ENVA 091250Z 06004KT 360V090 9999 FEW045 BKN065 19/15 Q1022 NOSIG RMK WIND 670FT 09003KT
    

Script utviklet av  Saratoga-weather.org Tilrettelagt for malen av  Weerstation Leuven

Du finner vår vær info også på:

UK Metoffice

European Weather Network

WeatherCloud

Weather Underground

Utstyr vi bruker:

Værstsjon
Davis VP2

Værprogram
Weather Display

Davis VP2

Weather Display